sensor_id;sensor_type;location;lat;lon;timestamp;pressure;altitude;pressure_sealevel;temperature;humidity
71145;BME280;58812;47.698;17.726;2023-06-14T00:01:31;99886.47;;;12.35;95.52
71145;BME280;58812;47.698;17.726;2023-06-14T00:04:00;99889.31;;;12.41;95.25
71145;BME280;58812;47.698;17.726;2023-06-14T00:06:28;99896.38;;;12.42;95.01
71145;BME280;58812;47.698;17.726;2023-06-14T00:08:53;99892.00;;;12.41;95.36
71145;BME280;58812;47.698;17.726;2023-06-14T00:11:20;99890.66;;;12.37;95.28
71145;BME280;58812;47.698;17.726;2023-06-14T00:13:46;99889.31;;;12.33;95.71
71145;BME280;58812;47.698;17.726;2023-06-14T00:16:12;99889.66;;;12.30;95.43
71145;BME280;58812;47.698;17.726;2023-06-14T00:18:37;99891.66;;;12.28;95.61
71145;BME280;58812;47.698;17.726;2023-06-14T00:21:03;99893.66;;;12.26;95.71
71145;BME280;58812;47.698;17.726;2023-06-14T00:23:29;99891.16;;;12.24;96.13
71145;BME280;58812;47.698;17.726;2023-06-14T00:25:55;99888.47;;;12.16;96.99
71145;BME280;58812;47.698;17.726;2023-06-14T00:28:20;99887.63;;;12.16;96.73
71145;BME280;58812;47.698;17.726;2023-06-14T00:30:46;99882.75;;;12.11;96.89
71145;BME280;58812;47.698;17.726;2023-06-14T00:33:12;99892.13;;;12.15;97.08
71145;BME280;58812;47.698;17.726;2023-06-14T00:35:37;99890.97;;;12.18;97.26
71145;BME280;58812;47.698;17.726;2023-06-14T00:38:03;99891.31;;;12.15;97.64
71145;BME280;58812;47.698;17.726;2023-06-14T00:40:28;99885.94;;;12.15;97.23
71145;BME280;58812;47.698;17.726;2023-06-14T00:42:53;99880.25;;;12.10;97.82
71145;BME280;58812;47.698;17.726;2023-06-14T00:45:19;99883.25;;;12.07;97.45
71145;BME280;58812;47.698;17.726;2023-06-14T00:47:45;99879.22;;;12.02;98.06
71145;BME280;58812;47.698;17.726;2023-06-14T00:50:11;99880.56;;;11.98;97.71
71145;BME280;58812;47.698;17.726;2023-06-14T00:52:38;99880.88;;;11.95;97.51
71145;BME280;58812;47.698;17.726;2023-06-14T00:55:04;99887.25;;;11.86;98.98
71145;BME280;58812;47.698;17.726;2023-06-14T00:57:30;99879.34;;;11.85;99.37
71145;BME280;58812;47.698;17.726;2023-06-14T00:59:56;99884.22;;;11.81;99.71
71145;BME280;58812;47.698;17.726;2023-06-14T01:02:21;99872.81;;;11.87;99.50
71145;BME280;58812;47.698;17.726;2023-06-14T01:04:48;99878.19;;;11.87;99.55
71145;BME280;58812;47.698;17.726;2023-06-14T01:10:29;99874.81;;;11.85;99.32
71145;BME280;58812;47.698;17.726;2023-06-14T01:13:20;99885.53;;;11.85;99.58
71145;BME280;58812;47.698;17.726;2023-06-14T01:15:47;99884.72;;;11.85;99.38
71145;BME280;58812;47.698;17.726;2023-06-14T01:18:13;99879.50;;;11.83;99.38
71145;BME280;58812;47.698;17.726;2023-06-14T01:20:45;99877.09;;;11.64;98.79
71145;BME280;58812;47.698;17.726;2023-06-14T01:23:16;99883.22;;;11.48;100.00
71145;BME280;58812;47.698;17.726;2023-06-14T01:25:41;99869.34;;;11.53;100.00
71145;BME280;58812;47.698;17.726;2023-06-14T01:28:10;99874.72;;;11.53;100.00
71145;BME280;58812;47.698;17.726;2023-06-14T01:30:41;99877.22;;;11.54;100.00
71145;BME280;58812;47.698;17.726;2023-06-14T01:33:14;99877.41;;;11.61;100.00
71145;BME280;58812;47.698;17.726;2023-06-14T01:35:43;99870.38;;;11.60;100.00
71145;BME280;58812;47.698;17.726;2023-06-14T01:38:09;99869.84;;;11.56;100.00
71145;BME280;58812;47.698;17.726;2023-06-14T01:40:34;99874.72;;;11.53;100.00
71145;BME280;58812;47.698;17.726;2023-06-14T01:43:01;99867.66;;;11.52;100.00
71145;BME280;58812;47.698;17.726;2023-06-14T01:45:28;99875.66;;;11.43;100.00
71145;BME280;58812;47.698;17.726;2023-06-14T01:47:54;99867.78;;;11.42;100.00
71145;BME280;58812;47.698;17.726;2023-06-14T01:50:20;99869.47;;;11.43;100.00
71145;BME280;58812;47.698;17.726;2023-06-14T01:52:46;99877.69;;;11.41;100.00
71145;BME280;58812;47.698;17.726;2023-06-14T01:55:11;99886.66;;;11.32;100.00
71145;BME280;58812;47.698;17.726;2023-06-14T01:57:37;99886.84;;;11.31;100.00
71145;BME280;58812;47.698;17.726;2023-06-14T02:00:04;99880.97;;;11.27;100.00
71145;BME280;58812;47.698;17.726;2023-06-14T02:02:33;99883.28;;;11.22;100.00
71145;BME280;58812;47.698;17.726;2023-06-14T02:04:58;99877.94;;;11.22;100.00
71145;BME280;58812;47.698;17.726;2023-06-14T02:07:23;99879.28;;;11.26;100.00
71145;BME280;58812;47.698;17.726;2023-06-14T02:09:49;99882.97;;;11.25;100.00
71145;BME280;58812;47.698;17.726;2023-06-14T02:12:14;99875.62;;;11.27;100.00
71145;BME280;58812;47.698;17.726;2023-06-14T02:14:40;99875.28;;;11.30;100.00
71145;BME280;58812;47.698;17.726;2023-06-14T02:17:05;99882.19;;;11.33;100.00
71145;BME280;58812;47.698;17.726;2023-06-14T02:19:31;99874.97;;;11.33;100.00
71145;BME280;58812;47.698;17.726;2023-06-14T02:21:57;99880.53;;;11.40;100.00
71145;BME280;58812;47.698;17.726;2023-06-14T02:24:22;99885.25;;;11.46;100.00
71145;BME280;58812;47.698;17.726;2023-06-14T02:26:49;99874.19;;;11.49;100.00
71145;BME280;58812;47.698;17.726;2023-06-14T02:29:14;99882.41;;;11.56;100.00
71145;BME280;58812;47.698;17.726;2023-06-14T02:31:41;99876.06;;;11.57;100.00
71145;BME280;58812;47.698;17.726;2023-06-14T02:34:06;99878.41;;;11.60;100.00
71145;BME280;58812;47.698;17.726;2023-06-14T02:36:34;99875.06;;;11.58;100.00
71145;BME280;58812;47.698;17.726;2023-06-14T02:39:00;99870.38;;;11.60;100.00
71145;BME280;58812;47.698;17.726;2023-06-14T02:41:25;99872.75;;;11.63;100.00
71145;BME280;58812;47.698;17.726;2023-06-14T02:43:51;99870.91;;;11.63;100.00
71145;BME280;58812;47.698;17.726;2023-06-14T02:46:17;99865.00;;;11.68;100.00
71145;BME280;58812;47.698;17.726;2023-06-14T02:48:43;99864.87;;;11.69;100.00
71145;BME280;58812;47.698;17.726;2023-06-14T02:51:08;99868.41;;;11.78;100.00
71145;BME280;58812;47.698;17.726;2023-06-14T02:53:35;99865.38;;;11.73;100.00
71145;BME280;58812;47.698;17.726;2023-06-14T02:56:01;99873.41;;;11.65;100.00
71145;BME280;58812;47.698;17.726;2023-06-14T02:58:29;99870.38;;;11.68;100.00
71145;BME280;58812;47.698;17.726;2023-06-14T03:00:55;99867.56;;;11.77;100.00
71145;BME280;58812;47.698;17.726;2023-06-14T03:03:20;99866.44;;;11.88;100.00
71145;BME280;58812;47.698;17.726;2023-06-14T03:05:47;99865.13;;;11.92;100.00
71145;BME280;58812;47.698;17.726;2023-06-14T03:08:15;99876.03;;;11.99;100.00
71145;BME280;58812;47.698;17.726;2023-06-14T03:10:51;99879.56;;;12.08;100.00
71145;BME280;58812;47.698;17.726;2023-06-14T03:13:16;99874.88;;;12.18;100.00
71145;BME280;58812;47.698;17.726;2023-06-14T03:15:42;99874.53;;;12.21;100.00
71145;BME280;58812;47.698;17.726;2023-06-14T03:18:10;99879.22;;;12.27;100.00
71145;BME280;58812;47.698;17.726;2023-06-14T03:20:37;99878.56;;;12.33;99.89
71145;BME280;58812;47.698;17.726;2023-06-14T03:23:03;99885.94;;;12.31;100.00
71145;BME280;58812;47.698;17.726;2023-06-14T03:25:29;99889.66;;;12.30;100.00
71145;BME280;58812;47.698;17.726;2023-06-14T03:27:57;99892.47;;;12.12;100.00
71145;BME280;58812;47.698;17.726;2023-06-14T03:30:23;99886.63;;;12.25;100.00
71145;BME280;58812;47.698;17.726;2023-06-14T03:32:48;99895.69;;;12.32;100.00
71145;BME280;58812;47.698;17.726;2023-06-14T03:35:14;99899.72;;;12.36;100.00
71145;BME280;58812;47.698;17.726;2023-06-14T03:37:46;99911.94;;;12.39;100.00
71145;BME280;58812;47.698;17.726;2023-06-14T03:40:13;99912.97;;;12.54;100.00
71145;BME280;58812;47.698;17.726;2023-06-14T03:42:39;99909.31;;;12.63;99.14
71145;BME280;58812;47.698;17.726;2023-06-14T03:45:05;99916.16;;;12.82;97.83
71145;BME280;58812;47.698;17.726;2023-06-14T03:47:31;99924.22;;;12.82;96.84
71145;BME280;58812;47.698;17.726;2023-06-14T03:49:57;99918.31;;;12.87;95.66
71145;BME280;58812;47.698;17.726;2023-06-14T03:52:22;99920.34;;;12.84;95.42
71145;BME280;58812;47.698;17.726;2023-06-14T03:54:48;99930.91;;;12.86;95.64
71145;BME280;58812;47.698;17.726;2023-06-14T03:57:14;99935.97;;;12.89;95.55
71145;BME280;58812;47.698;17.726;2023-06-14T03:59:40;99933.94;;;12.91;95.80
71145;BME280;58812;47.698;17.726;2023-06-14T04:02:06;99935.09;;;12.97;95.40
71145;BME280;58812;47.698;17.726;2023-06-14T04:04:32;99945.69;;;13.06;95.29
71145;BME280;58812;47.698;17.726;2023-06-14T04:06:58;99939.13;;;13.17;95.73
71145;BME280;58812;47.698;17.726;2023-06-14T04:09:24;99946.69;;;13.22;95.13
71145;BME280;58812;47.698;17.726;2023-06-14T04:11:52;99945.47;;;13.16;95.49
71145;BME280;58812;47.698;17.726;2023-06-14T04:14:19;99939.63;;;13.13;96.16
71145;BME280;58812;47.698;17.726;2023-06-14T04:16:48;99940.97;;;13.17;96.81
71145;BME280;58812;47.698;17.726;2023-06-14T04:19:15;99943.47;;;13.18;96.65
71145;BME280;58812;47.698;17.726;2023-06-14T04:21:41;99947.69;;;13.21;96.10
71145;BME280;58812;47.698;17.726;2023-06-14T04:24:07;99947.03;;;13.02;96.69
71145;BME280;58812;47.698;17.726;2023-06-14T04:26:42;99949.88;;;13.09;96.18
71145;BME280;58812;47.698;17.726;2023-06-14T04:29:10;99956.22;;;13.16;96.27
71145;BME280;58812;47.698;17.726;2023-06-14T04:31:48;99955.41;;;13.16;96.53
71145;BME280;58812;47.698;17.726;2023-06-14T04:34:14;99962.66;;;13.23;97.65
71145;BME280;58812;47.698;17.726;2023-06-14T04:36:43;99966.50;;;13.29;97.51
71145;BME280;58812;47.698;17.726;2023-06-14T04:39:15;99966.50;;;13.13;99.73
71145;BME280;58812;47.698;17.726;2023-06-14T04:41:43;99964.69;;;12.89;100.00
71145;BME280;58812;47.698;17.726;2023-06-14T04:44:08;99962.13;;;13.03;100.00
71145;BME280;58812;47.698;17.726;2023-06-14T04:46:35;99973.25;;;12.84;100.00
71145;BME280;58812;47.698;17.726;2023-06-14T04:49:09;99971.53;;;12.91;100.00
71145;BME280;58812;47.698;17.726;2023-06-14T04:51:35;99964.50;;;12.90;100.00
71145;BME280;58812;47.698;17.726;2023-06-14T04:54:02;99969.56;;;12.93;100.00
71145;BME280;58812;47.698;17.726;2023-06-14T04:56:28;99962.66;;;12.91;100.00
71145;BME280;58812;47.698;17.726;2023-06-14T04:58:55;99962.13;;;13.03;100.00
71145;BME280;58812;47.698;17.726;2023-06-14T05:01:22;99966.34;;;13.06;100.00
71145;BME280;58812;47.698;17.726;2023-06-14T05:03:49;99966.66;;;13.03;100.00
71145;BME280;58812;47.698;17.726;2023-06-14T05:06:15;99964.66;;;13.13;100.00
71145;BME280;58812;47.698;17.726;2023-06-14T05:08:41;99965.81;;;13.19;100.00
71145;BME280;58812;47.698;17.726;2023-06-14T05:11:06;99973.41;;;13.23;99.57
71145;BME280;58812;47.698;17.726;2023-06-14T05:13:32;99976.75;;;13.25;100.00
71145;BME280;58812;47.698;17.726;2023-06-14T05:15:58;99990.00;;;13.27;100.00
71145;BME280;58812;47.698;17.726;2023-06-14T05:18:24;99985.63;;;13.34;98.91
71145;BME280;58812;47.698;17.726;2023-06-14T05:20:50;99979.25;;;13.43;98.33
71145;BME280;58812;47.698;17.726;2023-06-14T05:23:16;99977.53;;;13.50;97.66
71145;BME280;58812;47.698;17.726;2023-06-14T05:25:45;99985.59;;;13.50;97.08
71145;BME280;58812;47.698;17.726;2023-06-14T05:28:10;99978.94;;;13.30;98.24
71145;BME280;58812;47.698;17.726;2023-06-14T05:30:37;99992.34;;;13.38;97.74
71145;BME280;58812;47.698;17.726;2023-06-14T05:33:03;99998.38;;;13.48;97.64
71145;BME280;58812;47.698;17.726;2023-06-14T05:35:29;100012.50;;;13.50;98.35
71145;BME280;58812;47.698;17.726;2023-06-14T05:37:54;100010.13;;;13.55;98.51
71145;BME280;58812;47.698;17.726;2023-06-14T05:40:20;100018.56;;;13.52;97.89
71145;BME280;58812;47.698;17.726;2023-06-14T05:42:45;100028.62;;;13.58;97.85
71145;BME280;58812;47.698;17.726;2023-06-14T05:45:11;100019.03;;;13.56;97.43
71145;BME280;58812;47.698;17.726;2023-06-14T05:47:36;100004.28;;;13.44;96.40
71145;BME280;58812;47.698;17.726;2023-06-14T05:50:02;99996.62;;;13.72;96.43
71145;BME280;58812;47.698;17.726;2023-06-14T05:52:27;100002.69;;;13.74;94.13
71145;BME280;58812;47.698;17.726;2023-06-14T05:54:53;99996.88;;;13.93;93.67
71145;BME280;58812;47.698;17.726;2023-06-14T05:57:18;100003.59;;;13.97;93.60
71145;BME280;58812;47.698;17.726;2023-06-14T05:59:44;99991.78;;;14.06;93.11
71145;BME280;58812;47.698;17.726;2023-06-14T06:02:10;99982.06;;;13.97;93.44
71145;BME280;58812;47.698;17.726;2023-06-14T06:04:35;99984.25;;;14.02;93.09
71145;BME280;58812;47.698;17.726;2023-06-14T06:07:01;100003.16;;;14.16;92.52
71145;BME280;58812;47.698;17.726;2023-06-14T06:09:26;100014.38;;;13.97;94.50
71145;BME280;58812;47.698;17.726;2023-06-14T06:11:52;100021.31;;;14.23;93.38
71145;BME280;58812;47.698;17.726;2023-06-14T06:14:17;100020.37;;;14.38;93.42
71145;BME280;58812;47.698;17.726;2023-06-14T06:16:42;100027.09;;;14.42;91.09
71145;BME280;58812;47.698;17.726;2023-06-14T06:19:08;100025.41;;;14.50;91.14
71145;BME280;58812;47.698;17.726;2023-06-14T11:51:07;100108.19;;;25.50;34.81
71145;BME280;58812;47.698;17.726;2023-06-14T11:53:32;100110.09;;;24.64;35.76
71145;BME280;58812;47.698;17.726;2023-06-14T11:55:58;100108.50;;;24.39;34.40
71145;BME280;58812;47.698;17.726;2023-06-14T11:58:25;100112.69;;;24.99;34.71
71145;BME280;58812;47.698;17.726;2023-06-14T12:00:52;100108.78;;;24.95;34.16
71145;BME280;58812;47.698;17.726;2023-06-14T12:03:22;100101.44;;;25.57;32.22
71145;BME280;58812;47.698;17.726;2023-06-14T12:05:48;100112.00;;;25.82;32.58
71145;BME280;58812;47.698;17.726;2023-06-14T12:08:13;100110.53;;;26.14;32.58
71145;BME280;58812;47.698;17.726;2023-06-14T12:10:44;100117.00;;;26.24;33.04
71145;BME280;58812;47.698;17.726;2023-06-14T12:13:10;100112.38;;;26.08;32.93
71145;BME280;58812;47.698;17.726;2023-06-14T12:15:36;100110.91;;;26.39;32.87
71145;BME280;58812;47.698;17.726;2023-06-14T12:18:05;100112.53;;;24.77;33.95
71145;BME280;58812;47.698;17.726;2023-06-14T12:20:31;100119.72;;;25.07;35.94
71145;BME280;58812;47.698;17.726;2023-06-14T12:23:03;100109.13;;;24.98;35.62
71145;BME280;58812;47.698;17.726;2023-06-14T12:25:33;100103.72;;;24.23;36.97
71145;BME280;58812;47.698;17.726;2023-06-14T12:28:07;100107.66;;;24.27;36.61
71145;BME280;58812;47.698;17.726;2023-06-14T12:30:37;100101.81;;;24.23;36.27
71145;BME280;58812;47.698;17.726;2023-06-14T12:33:03;100105.19;;;23.79;37.17
71145;BME280;58812;47.698;17.726;2023-06-14T12:35:28;100105.53;;;24.06;37.32
71145;BME280;58812;47.698;17.726;2023-06-14T12:37:54;100108.75;;;23.26;37.76
71145;BME280;58812;47.698;17.726;2023-06-14T12:40:19;100113.38;;;23.79;39.12
71145;BME280;58812;47.698;17.726;2023-06-14T12:42:45;100109.66;;;23.61;37.37
71145;BME280;58812;47.698;17.726;2023-06-14T12:45:12;100099.62;;;23.32;39.24
71145;BME280;58812;47.698;17.726;2023-06-14T12:47:38;100096.62;;;23.75;39.36
71145;BME280;58812;47.698;17.726;2023-06-14T12:50:04;100095.03;;;23.56;40.08
71145;BME280;58812;47.698;17.726;2023-06-14T12:52:30;100094.13;;;24.09;37.98
71145;BME280;58812;47.698;17.726;2023-06-14T12:54:55;100098.37;;;24.28;37.43
71145;BME280;58812;47.698;17.726;2023-06-14T12:57:21;100093.16;;;24.15;38.34
71145;BME280;58812;47.698;17.726;2023-06-14T12:59:46;100099.28;;;24.57;37.32
71145;BME280;58812;47.698;17.726;2023-06-14T13:02:12;100101.69;;;24.18;38.86
71145;BME280;58812;47.698;17.726;2023-06-14T13:04:38;100100.41;;;23.74;38.11
71145;BME280;58812;47.698;17.726;2023-06-14T13:07:04;100096.56;;;24.86;37.00
71145;BME280;58812;47.698;17.726;2023-06-14T13:09:29;100091.69;;;23.54;37.97
71145;BME280;58812;47.698;17.726;2023-06-14T13:11:55;100095.00;;;24.90;37.86
71145;BME280;58812;47.698;17.726;2023-06-14T13:14:20;100079.91;;;24.47;37.17
71145;BME280;58812;47.698;17.726;2023-06-14T13:16:46;100080.16;;;24.45;37.16
71145;BME280;58812;47.698;17.726;2023-06-14T13:19:11;100080.47;;;23.74;39.45
71145;BME280;58812;47.698;17.726;2023-06-14T13:21:36;100082.06;;;23.51;40.04
71145;BME280;58812;47.698;17.726;2023-06-14T13:24:02;100081.44;;;23.26;41.42
71145;BME280;58812;47.698;17.726;2023-06-14T13:26:27;100083.28;;;23.02;42.32
71145;BME280;58812;47.698;17.726;2023-06-14T13:28:53;100087.09;;;24.01;40.70
71145;BME280;58812;47.698;17.726;2023-06-14T13:31:18;100083.53;;;23.77;41.52
71145;BME280;58812;47.698;17.726;2023-06-14T13:33:44;100083.56;;;23.24;41.31
71145;BME280;58812;47.698;17.726;2023-06-14T13:36:09;100079.47;;;22.54;45.02
71145;BME280;58812;47.698;17.726;2023-06-14T13:38:35;100073.91;;;23.75;43.51
71145;BME280;58812;47.698;17.726;2023-06-14T13:41:00;100082.50;;;23.25;43.13
71145;BME280;58812;47.698;17.726;2023-06-14T13:43:26;100079.12;;;24.11;43.05
71145;BME280;58812;47.698;17.726;2023-06-14T13:45:51;100073.78;;;23.93;43.22
71145;BME280;58812;47.698;17.726;2023-06-14T13:48:17;100071.19;;;23.75;44.41
71145;BME280;58812;47.698;17.726;2023-06-14T13:50:43;100074.75;;;24.62;42.50
71145;BME280;58812;47.698;17.726;2023-06-14T13:53:09;100084.09;;;24.49;43.32
71145;BME280;58812;47.698;17.726;2023-06-14T13:55:35;100079.06;;;24.87;41.36
71145;BME280;58812;47.698;17.726;2023-06-14T13:58:00;100079.91;;;25.16;41.74
71145;BME280;58812;47.698;17.726;2023-06-14T14:00:26;100075.53;;;25.03;41.43
71145;BME280;58812;47.698;17.726;2023-06-14T14:02:51;100066.31;;;23.77;43.84
71145;BME280;58812;47.698;17.726;2023-06-14T14:05:17;100072.81;;;24.22;42.90
71145;BME280;58812;47.698;17.726;2023-06-14T14:07:42;100067.19;;;24.29;45.04
71145;BME280;58812;47.698;17.726;2023-06-14T14:10:08;100067.97;;;23.12;43.67
71145;BME280;58812;47.698;17.726;2023-06-14T14:12:33;100072.53;;;23.18;45.14
71145;BME280;58812;47.698;17.726;2023-06-14T14:14:59;100070.34;;;24.09;43.65
71145;BME280;58812;47.698;17.726;2023-06-14T14:17:24;100062.56;;;24.30;42.86
71145;BME280;58812;47.698;17.726;2023-06-14T14:19:50;100067.78;;;24.43;42.09
71145;BME280;58812;47.698;17.726;2023-06-14T14:22:16;100063.69;;;23.70;42.76
71145;BME280;58812;47.698;17.726;2023-06-14T14:24:41;100062.72;;;24.11;43.72
71145;BME280;58812;47.698;17.726;2023-06-14T14:27:06;100062.06;;;24.56;42.11
71145;BME280;58812;47.698;17.726;2023-06-14T14:29:33;100060.00;;;24.92;42.01
71145;BME280;58812;47.698;17.726;2023-06-14T14:31:58;100065.25;;;24.53;42.05
71145;BME280;58812;47.698;17.726;2023-06-14T14:34:24;100059.62;;;24.08;43.90
71145;BME280;58812;47.698;17.726;2023-06-14T14:36:49;100066.00;;;24.37;43.69
71145;BME280;58812;47.698;17.726;2023-06-14T14:39:15;100058.22;;;23.82;44.66
71145;BME280;58812;47.698;17.726;2023-06-14T14:41:40;100056.78;;;24.14;43.58
71145;BME280;58812;47.698;17.726;2023-06-14T14:44:06;100055.44;;;23.58;44.71
71145;BME280;58812;47.698;17.726;2023-06-14T14:46:32;100057.94;;;23.60;44.17
71145;BME280;58812;47.698;17.726;2023-06-14T14:48:58;100056.50;;;23.34;45.09
71145;BME280;58812;47.698;17.726;2023-06-14T14:51:24;100051.56;;;22.82;45.85
71145;BME280;58812;47.698;17.726;2023-06-14T14:53:49;100049.56;;;22.78;46.55
71145;BME280;58812;47.698;17.726;2023-06-14T14:56:15;100046.87;;;23.31;45.75
71145;BME280;58812;47.698;17.726;2023-06-14T14:58:40;100047.94;;;23.30;45.71
71145;BME280;58812;47.698;17.726;2023-06-14T15:01:06;100047.47;;;23.33;44.66
71145;BME280;58812;47.698;17.726;2023-06-14T15:03:32;100045.47;;;23.52;43.47
71145;BME280;58812;47.698;17.726;2023-06-14T15:05:58;100047.75;;;24.54;42.12
71145;BME280;58812;47.698;17.726;2023-06-14T15:08:23;100048.78;;;24.13;43.91
71145;BME280;58812;47.698;17.726;2023-06-14T15:10:48;100038.28;;;23.04;43.36
71145;BME280;58812;47.698;17.726;2023-06-14T15:13:14;100047.66;;;23.97;43.09
71145;BME280;58812;47.698;17.726;2023-06-14T15:15:39;100042.38;;;24.07;42.71
71145;BME280;58812;47.698;17.726;2023-06-14T15:18:05;100046.84;;;24.37;42.14
71145;BME280;58812;47.698;17.726;2023-06-14T15:20:30;100031.78;;;24.34;41.93
71145;BME280;58812;47.698;17.726;2023-06-14T15:22:56;100043.53;;;24.35;41.31
71145;BME280;58812;47.698;17.726;2023-06-14T15:25:26;100041.03;;;24.73;40.57
71145;BME280;58812;47.698;17.726;2023-06-14T15:27:51;100038.66;;;24.65;40.03
71145;BME280;58812;47.698;17.726;2023-06-14T15:30:17;100042.56;;;25.26;38.89
71145;BME280;58812;47.698;17.726;2023-06-14T15:32:42;100037.94;;;24.30;40.21
71145;BME280;58812;47.698;17.726;2023-06-14T15:35:08;100038.50;;;25.00;40.00
71145;BME280;58812;47.698;17.726;2023-06-14T15:37:33;100041.13;;;25.24;39.03
71145;BME280;58812;47.698;17.726;2023-06-14T15:39:58;100043.87;;;25.41;38.51
71145;BME280;58812;47.698;17.726;2023-06-14T15:42:24;100036.72;;;25.23;38.62
71145;BME280;58812;47.698;17.726;2023-06-14T15:44:49;100045.84;;;25.12;38.16
71145;BME280;58812;47.698;17.726;2023-06-14T15:47:15;100039.53;;;24.54;36.48
71145;BME280;58812;47.698;17.726;2023-06-14T15:49:40;100036.75;;;24.94;37.51
71145;BME280;58812;47.698;17.726;2023-06-14T15:52:06;100033.03;;;24.72;37.46
71145;BME280;58812;47.698;17.726;2023-06-14T15:54:32;100037.31;;;24.80;38.13
71145;BME280;58812;47.698;17.726;2023-06-14T15:56:57;100037.72;;;24.88;38.34
71145;BME280;58812;47.698;17.726;2023-06-14T15:59:23;100034.75;;;24.90;38.26
71145;BME280;58812;47.698;17.726;2023-06-14T16:01:49;100036.38;;;24.74;39.97
71145;BME280;58812;47.698;17.726;2023-06-14T16:04:14;100033.69;;;24.62;39.50
71145;BME280;58812;47.698;17.726;2023-06-14T16:06:40;100043.78;;;24.21;39.19
71145;BME280;58812;47.698;17.726;2023-06-14T16:09:05;100040.47;;;24.19;39.12
71145;BME280;58812;47.698;17.726;2023-06-14T16:11:30;100042.56;;;24.29;38.10
71145;BME280;58812;47.698;17.726;2023-06-14T16:13:56;100042.88;;;24.04;39.28
71145;BME280;58812;47.698;17.726;2023-06-14T16:16:22;100047.97;;;24.01;38.91
71145;BME280;58812;47.698;17.726;2023-06-14T16:18:48;100040.00;;;24.11;39.42
71145;BME280;58812;47.698;17.726;2023-06-14T16:21:14;100054.78;;;23.98;38.56
71145;BME280;58812;47.698;17.726;2023-06-14T16:23:39;100053.13;;;23.74;39.00
71145;BME280;58812;47.698;17.726;2023-06-14T16:26:09;100049.44;;;23.68;39.11
71145;BME280;58812;47.698;17.726;2023-06-14T16:28:35;100056.19;;;23.65;39.01
71145;BME280;58812;47.698;17.726;2023-06-14T16:31:00;100054.91;;;23.91;38.86
71145;BME280;58812;47.698;17.726;2023-06-14T16:33:25;100058.81;;;23.60;39.58
71145;BME280;58812;47.698;17.726;2023-06-14T16:35:51;100064.19;;;23.67;40.46
71145;BME280;58812;47.698;17.726;2023-06-14T16:38:16;100065.00;;;23.02;40.88
71145;BME280;58812;47.698;17.726;2023-06-14T16:40:42;100063.00;;;23.09;41.15
71145;BME280;58812;47.698;17.726;2023-06-14T16:43:07;100063.81;;;22.80;41.38
71145;BME280;58812;47.698;17.726;2023-06-14T16:45:32;100065.00;;;22.54;42.23
71145;BME280;58812;47.698;17.726;2023-06-14T16:47:58;100068.38;;;22.67;42.53
71145;BME280;58812;47.698;17.726;2023-06-14T16:50:23;100069.38;;;22.73;43.79
71145;BME280;58812;47.698;17.726;2023-06-14T16:52:49;100073.50;;;22.76;43.62
71145;BME280;58812;47.698;17.726;2023-06-14T16:55:14;100077.53;;;22.91;42.98
71145;BME280;58812;47.698;17.726;2023-06-14T16:57:39;100082.81;;;22.56;46.78
71145;BME280;58812;47.698;17.726;2023-06-14T17:00:06;100075.97;;;22.47;48.62
71145;BME280;58812;47.698;17.726;2023-06-14T17:02:31;100079.19;;;22.26;49.23
71145;BME280;58812;47.698;17.726;2023-06-14T17:04:57;100075.88;;;22.24;51.18
71145;BME280;58812;47.698;17.726;2023-06-14T17:07:22;100086.25;;;21.40;55.58
71145;BME280;58812;47.698;17.726;2023-06-14T17:09:48;100086.09;;;21.03;58.06
71145;BME280;58812;47.698;17.726;2023-06-14T17:12:14;100085.94;;;20.92;59.48
71145;BME280;58812;47.698;17.726;2023-06-14T17:14:39;100084.19;;;20.72;61.71
71145;BME280;58812;47.698;17.726;2023-06-14T17:17:05;100094.28;;;20.59;61.79
71145;BME280;58812;47.698;17.726;2023-06-14T17:19:31;100092.75;;;20.76;61.79
71145;BME280;58812;47.698;17.726;2023-06-14T17:21:56;100100.09;;;20.69;61.64
71145;BME280;58812;47.698;17.726;2023-06-14T17:24:23;100096.34;;;20.70;61.69
71145;BME280;58812;47.698;17.726;2023-06-14T17:26:48;100098.91;;;20.51;62.10
71145;BME280;58812;47.698;17.726;2023-06-14T17:29:14;100089.53;;;20.47;61.90
71145;BME280;58812;47.698;17.726;2023-06-14T17:31:39;100096.72;;;20.73;61.12
71145;BME280;58812;47.698;17.726;2023-06-14T17:34:05;100101.66;;;20.90;60.19
71145;BME280;58812;47.698;17.726;2023-06-14T17:36:31;100106.75;;;20.79;61.99
71145;BME280;58812;47.698;17.726;2023-06-14T17:38:56;100105.56;;;20.62;62.71
71145;BME280;58812;47.698;17.726;2023-06-14T17:41:22;100102.72;;;20.37;62.30
71145;BME280;58812;47.698;17.726;2023-06-14T17:43:49;100104.81;;;20.35;61.76
71145;BME280;58812;47.698;17.726;2023-06-14T17:46:14;100108.37;;;20.36;62.62
71145;BME280;58812;47.698;17.726;2023-06-14T17:48:40;100111.94;;;20.30;62.29
71145;BME280;58812;47.698;17.726;2023-06-14T17:51:06;100107.78;;;20.14;63.53
71145;BME280;58812;47.698;17.726;2023-06-14T17:53:32;100109.09;;;20.05;65.05
71145;BME280;58812;47.698;17.726;2023-06-14T17:55:58;100110.12;;;19.90;64.65
71145;BME280;58812;47.698;17.726;2023-06-14T17:58:23;100104.28;;;19.73;64.81
71145;BME280;58812;47.698;17.726;2023-06-14T18:00:50;100108.91;;;19.66;65.11
71145;BME280;58812;47.698;17.726;2023-06-14T18:03:17;100114.09;;;19.55;65.75
71145;BME280;58812;47.698;17.726;2023-06-14T18:05:43;100109.53;;;19.62;65.61
71145;BME280;58812;47.698;17.726;2023-06-14T18:08:10;100104.06;;;19.55;65.82
71145;BME280;58812;47.698;17.726;2023-06-14T18:10:36;100115.34;;;19.45;66.76